Time;durP1;ratioP1;P1;durP2;ratioP2;P2;SDS_P1;SDS_P2;PMS_P1;PMS_P2;Temp;Humidity;BMP_temperature;BMP_pressure;BME280_temperature;BME280_humidity;BME280_pressure;Samples;Min_cycle;Max_cycle;Signal;HPM_P1;HPM_P2
2022/08/09 00:01:31;;;;;;;4.60;2.22;;;19.90;92.80;;;;;;5012162;28;20222;-78
2022/08/09 00:03:58;;;;;;;3.13;1.85;;;19.80;92.80;;;;;;5012795;28;20715;-76
2022/08/09 00:06:25;;;;;;;3.85;2.10;;;19.80;92.90;;;;;;5013708;28;20668;-77
2022/08/09 00:08:53;;;;;;;2.00;1.60;;;19.80;92.90;;;;;;5013453;28;20203;-76
2022/08/09 00:11:21;;;;;;;2.30;1.77;;;19.80;93.00;;;;;;5012228;28;20714;-77
2022/08/09 00:13:49;;;;;;;4.57;1.65;;;19.80;93.10;;;;;;5009856;28;20211;-77
2022/08/09 00:16:16;;;;;;;3.22;1.67;;;19.80;93.20;;;;;;5013874;28;20235;-77
2022/08/09 00:18:43;;;;;;;2.85;1.70;;;19.80;93.10;;;;;;5012853;28;20273;-76
2022/08/09 00:21:10;;;;;;;2.40;1.60;;;19.80;93.20;;;;;;5013696;28;20207;-77
2022/08/09 00:23:38;;;;;;;3.47;1.63;;;19.80;93.30;;;;;;5013068;28;20226;-76
2022/08/09 00:26:06;;;;;;;2.33;1.80;;;19.80;93.40;;;;;;5013449;28;20208;-76
2022/08/09 00:28:35;;;;;;;1.95;1.63;;;19.80;93.50;;;;;;5011289;28;20612;-77
2022/08/09 00:31:03;;;;;;;2.83;1.45;;;19.80;93.70;;;;;;5010450;28;20211;-76
2022/08/09 00:33:30;;;;;;;3.83;2.10;;;19.80;93.80;;;;;;5012874;28;21921;-75
2022/08/09 00:35:58;;;;;;;4.03;1.92;;;19.80;94.00;;;;;;5013678;28;20207;-75
2022/08/09 00:38:25;;;;;;;2.38;1.70;;;19.70;94.10;;;;;;5011128;28;20215;-76
2022/08/09 00:40:52;;;;;;;5.15;1.65;;;19.80;94.30;;;;;;5013350;28;20214;-76
2022/08/09 00:43:19;;;;;;;1.83;1.50;;;19.80;94.50;;;;;;5013502;28;20694;-77
2022/08/09 00:45:47;;;;;;;3.97;1.60;;;19.70;94.50;;;;;;5013157;28;20660;-77
2022/08/09 00:48:14;;;;;;;5.78;2.05;;;19.80;94.70;;;;;;5010897;28;20203;-77
2022/08/09 00:50:42;;;;;;;3.78;1.83;;;19.80;94.80;;;;;;5010443;28;20203;-76
2022/08/09 00:53:09;;;;;;;4.72;1.83;;;19.70;94.90;;;;;;5012207;28;20652;-76
2022/08/09 00:55:36;;;;;;;3.78;1.67;;;19.70;95.10;;;;;;5013112;28;20212;-75
2022/08/09 00:58:03;;;;;;;1.88;1.40;;;19.70;95.30;;;;;;5012914;28;20211;-75
2022/08/09 01:00:30;;;;;;;3.65;1.95;;;19.70;95.30;;;;;;5012927;28;20203;-75
2022/08/09 01:03:09;;;;;;;4.60;1.73;;;19.70;95.50;;;;;;5008795;28;20203;-76
2022/08/09 01:05:42;;;;;;;4.00;1.85;;;19.70;95.70;;;;;;5012276;28;20245;-75
2022/08/09 01:08:19;;;;;;;3.15;1.90;;;19.60;95.80;;;;;;5011661;28;20207;-75
2022/08/09 01:11:03;;;;;;;2.92;2.10;;;19.60;95.90;;;;;;5010528;28;20293;-74
2022/08/09 01:13:39;;;;;;;3.28;1.88;;;19.60;96.10;;;;;;5010757;28;20715;-75
2022/08/09 01:16:07;;;;;;;5.18;1.92;;;19.60;96.20;;;;;;5012328;28;20199;-76
2022/08/09 01:18:39;;;;;;;6.78;2.20;;;19.50;96.40;;;;;;5010552;28;20544;-75
2022/08/09 01:21:19;;;;;;;3.47;2.00;;;19.40;96.30;;;;;;5006721;28;20274;-76
2022/08/09 01:23:56;;;;;;;3.10;1.95;;;19.40;96.80;;;;;;5011076;28;20235;-77
2022/08/09 01:26:55;;;;;;;2.83;1.67;;;19.30;97.00;;;;;;5012462;28;20261;-78
2022/08/09 01:29:29;;;;;;;2.22;1.88;;;19.30;97.20;;;;;;4989267;28;20298;-77
2022/08/09 01:31:59;;;;;;;1.95;1.60;;;19.30;97.40;;;;;;5011193;28;20222;-76
2022/08/09 01:34:28;;;;;;;5.88;1.80;;;19.20;97.60;;;;;;5009078;28;20207;-76
2022/08/09 01:36:57;;;;;;;3.97;2.10;;;19.20;97.70;;;;;;5011302;28;20230;-76
2022/08/09 01:39:26;;;;;;;3.38;2.20;;;19.20;97.90;;;;;;5010612;28;20215;-76
2022/08/09 01:41:56;;;;;;;2.80;1.88;;;19.20;98.10;;;;;;5000485;28;20222;-76
2022/08/09 01:44:23;;;;;;;3.00;1.75;;;19.20;98.30;;;;;;5012730;28;20231;-77
2022/08/09 01:46:51;;;;;;;4.82;2.00;;;19.10;98.40;;;;;;5012383;28;20215;-77
2022/08/09 01:49:20;;;;;;;4.13;2.00;;;19.10;98.60;;;;;;5009760;28;20222;-76
2022/08/09 01:51:50;;;;;;;2.55;2.08;;;19.10;98.80;;;;;;5007806;28;20215;-77
2022/08/09 01:54:18;;;;;;;3.78;1.92;;;19.10;99.00;;;;;;5010703;28;20615;-76
2022/08/09 01:56:48;;;;;;;2.00;1.80;;;19.10;99.10;;;;;;5011173;28;20239;-76
2022/08/09 01:59:19;;;;;;;5.93;1.90;;;19.10;99.20;;;;;;5009564;28;20207;-76
2022/08/09 02:01:50;;;;;;;5.28;2.03;;;19.10;99.30;;;;;;5010949;28;20255;-77
2022/08/09 02:04:18;;;;;;;3.33;1.83;;;19.20;99.50;;;;;;5010155;28;20203;-77
2022/08/09 02:09:32;;;;;;;2.90;2.08;;;19.20;99.60;;;;;;5010061;28;20723;-76
2022/08/09 02:12:00;;;;;;;2.25;2.03;;;19.20;99.70;;;;;;5010193;28;20551;-76
2022/08/09 02:14:31;;;;;;;4.47;1.88;;;19.20;99.80;;;;;;5011066;28;20215;-76
2022/08/09 02:16:58;;;;;;;3.67;2.03;;;19.20;99.90;;;;;;5015309;28;20218;-76
2022/08/09 02:19:26;;;;;;;4.05;2.10;;;19.20;99.90;;;;;;5008929;28;20207;-77
2022/08/09 02:21:59;;;;;;;2.47;2.03;;;19.10;99.90;;;;;;5008472;28;20227;-76
2022/08/09 02:24:34;;;;;;;4.90;2.03;;;19.20;99.90;;;;;;5010696;28;20234;-76
2022/08/09 02:27:04;;;;;;;4.22;1.77;;;19.20;99.90;;;;;;5010236;28;20583;-76
2022/08/09 02:29:37;;;;;;;4.53;2.55;;;19.20;99.90;;;;;;5011323;28;20675;-76
2022/08/09 02:32:07;;;;;;;3.17;2.10;;;19.20;99.90;;;;;;5009080;28;20210;-77
2022/08/09 02:34:36;;;;;;;3.20;2.22;;;19.20;99.90;;;;;;5010748;28;20207;-76
2022/08/09 02:37:05;;;;;;;4.85;2.15;;;19.20;99.90;;;;;;5010038;28;20214;-76
2022/08/09 02:39:35;;;;;;;6.00;1.77;;;19.20;99.90;;;;;;5010648;28;20218;-76
2022/08/09 02:42:05;;;;;;;5.75;2.20;;;19.20;99.90;;;;;;5010967;28;20207;-76
2022/08/09 02:44:40;;;;;;;3.67;2.15;;;19.20;99.90;;;;;;5010361;28;20231;-75
2022/08/09 02:47:11;;;;;;;3.05;1.77;;;19.20;99.90;;;;;;5009595;28;20202;-77
2022/08/09 02:49:45;;;;;;;2.45;1.80;;;19.20;99.90;;;;;;5010661;28;20903;-76
2022/08/09 02:52:16;;;;;;;5.20;1.90;;;19.10;99.90;;;;;;5009886;28;20203;-76
2022/08/09 02:54:44;;;;;;;1.73;1.63;;;19.10;99.90;;;;;;5009954;28;20302;-78
2022/08/09 02:57:11;;;;;;;4.47;2.10;;;19.20;99.90;;;;;;5009549;28;20234;-76
2022/08/09 02:59:41;;;;;;;5.57;2.05;;;19.20;99.90;;;;;;5010085;28;20290;-75
2022/08/09 03:02:11;;;;;;;2.65;1.80;;;19.20;99.90;;;;;;5010026;28;20218;-76
2022/08/09 03:04:39;;;;;;;2.45;1.60;;;19.10;99.90;;;;;;5009247;28;20245;-76
2022/08/09 03:07:07;;;;;;;3.78;2.45;;;19.10;99.90;;;;;;5009107;28;20255;-77
2022/08/09 03:09:35;;;;;;;3.70;2.97;;;19.20;99.90;;;;;;5010124;28;20214;-76
2022/08/09 03:12:04;;;;;;;4.80;2.40;;;19.10;99.90;;;;;;5006885;28;20238;-76
2022/08/09 03:14:31;;;;;;;3.05;1.80;;;19.20;99.90;;;;;;5000227;28;20226;-76
2022/08/09 03:17:00;;;;;;;2.83;2.13;;;19.20;99.90;;;;;;5007178;28;20216;-76
2022/08/09 03:19:27;;;;;;;2.88;1.67;;;19.10;99.90;;;;;;5008357;28;20273;-75
2022/08/09 03:21:56;;;;;;;5.28;2.65;;;19.10;99.90;;;;;;5009469;28;20231;-75
2022/08/09 03:24:24;;;;;;;3.38;2.13;;;19.10;99.90;;;;;;5010208;28;20207;-75
2022/08/09 03:26:51;;;;;;;2.70;1.67;;;19.20;99.90;;;;;;5009456;28;20636;-77
2022/08/09 03:29:19;;;;;;;3.30;1.65;;;19.20;99.90;;;;;;5012795;28;20215;-76
2022/08/09 03:31:46;;;;;;;2.10;1.80;;;19.10;99.90;;;;;;5006819;28;20695;-78
2022/08/09 03:34:14;;;;;;;2.42;1.77;;;19.20;99.90;;;;;;5012733;28;20229;-77
2022/08/09 03:36:41;;;;;;;3.33;1.90;;;19.20;99.90;;;;;;5013424;28;20234;-75
2022/08/09 03:39:08;;;;;;;4.28;2.15;;;19.10;99.90;;;;;;5013953;28;20215;-75
2022/08/09 03:41:35;;;;;;;2.42;2.22;;;19.10;99.90;;;;;;5013014;28;20580;-77
2022/08/09 03:44:02;;;;;;;4.05;2.20;;;19.10;99.90;;;;;;5013560;28;20295;-76
2022/08/09 03:46:29;;;;;;;7.75;2.20;;;19.10;99.90;;;;;;5011888;28;20222;-76
2022/08/09 03:49:01;;;;;;;3.78;2.58;;;19.10;99.90;;;;;;5012497;28;20219;-77
2022/08/09 03:51:30;;;;;;;3.45;2.42;;;19.10;99.90;;;;;;5013641;28;20550;-76
2022/08/09 03:53:57;;;;;;;2.85;2.20;;;19.00;99.90;;;;;;5013718;28;20219;-76
2022/08/09 03:56:24;;;;;;;5.00;2.00;;;19.00;99.90;;;;;;5012159;28;20235;-76
2022/08/09 03:58:51;;;;;;;3.78;2.13;;;19.00;99.90;;;;;;5014239;28;20656;-77
2022/08/09 04:01:18;;;;;;;4.70;2.05;;;19.00;99.90;;;;;;5012131;28;20207;-76
2022/08/09 04:03:46;;;;;;;2.90;2.03;;;19.00;99.90;;;;;;5009214;28;20648;-77
2022/08/09 04:06:13;;;;;;;3.72;2.25;;;19.00;99.90;;;;;;5014140;28;20561;-77
2022/08/09 04:08:41;;;;;;;4.95;2.38;;;19.00;99.90;;;;;;5013080;28;20687;-78
2022/08/09 04:11:09;;;;;;;6.15;2.20;;;19.00;99.90;;;;;;5013396;28;20219;-76
2022/08/09 04:13:36;;;;;;;5.28;2.13;;;19.00;99.90;;;;;;5013496;28;20214;-77
2022/08/09 04:16:03;;;;;;;3.92;1.90;;;19.00;99.90;;;;;;5011313;28;20211;-76
2022/08/09 04:18:30;;;;;;;4.65;2.33;;;19.10;99.90;;;;;;5011938;28;20211;-76
2022/08/09 04:20:57;;;;;;;6.20;2.20;;;19.10;99.90;;;;;;5012247;28;20215;-77
2022/08/09 04:23:24;;;;;;;4.95;2.22;;;19.10;99.90;;;;;;5013230;28;20223;-76
2022/08/09 04:25:53;;;;;;;2.60;2.13;;;19.20;99.90;;;;;;4999069;28;20226;-76
2022/08/09 04:28:21;;;;;;;7.15;2.60;;;19.20;99.90;;;;;;5012785;28;20222;-76
2022/08/09 04:30:47;;;;;;;2.90;2.25;;;19.20;99.90;;;;;;5011572;28;20371;-78
2022/08/09 04:33:14;;;;;;;4.72;2.63;;;19.20;99.90;;;;;;5011503;28;20212;-76
2022/08/09 04:35:41;;;;;;;5.82;2.25;;;19.20;99.90;;;;;;5011983;28;20212;-76
2022/08/09 04:38:08;;;;;;;3.80;2.30;;;19.20;99.90;;;;;;5012259;28;20250;-77
2022/08/09 04:40:49;;;;;;;4.53;2.70;;;19.20;99.90;;;;;;5011237;28;20211;-75
2022/08/09 04:43:18;;;;;;;4.63;2.05;;;19.20;99.90;;;;;;5012198;28;20206;-75
2022/08/09 04:45:46;;;;;;;3.05;2.17;;;19.20;99.90;;;;;;5010385;28;20253;-76
2022/08/09 04:48:13;;;;;;;3.03;2.20;;;19.20;99.90;;;;;;5009113;28;20219;-76
2022/08/09 04:50:41;;;;;;;7.60;2.65;;;19.10;99.90;;;;;;5012610;28;20215;-76
2022/08/09 04:53:09;;;;;;;4.22;2.35;;;19.10;99.90;;;;;;5011563;28;20290;-76
2022/08/09 04:55:36;;;;;;;4.90;2.50;;;19.10;99.90;;;;;;5001843;28;20203;-76
2022/08/09 04:58:03;;;;;;;4.85;2.15;;;19.10;99.90;;;;;;5010510;28;20205;-76
2022/08/09 05:00:33;;;;;;;6.88;2.50;;;19.10;99.90;;;;;;4999211;28;20205;-73
2022/08/09 05:03:00;;;;;;;4.45;2.70;;;19.20;99.90;;;;;;5012432;28;20210;-73
2022/08/09 05:05:27;;;;;;;8.80;2.53;;;19.20;99.90;;;;;;5011335;28;20238;-72
2022/08/09 05:07:54;;;;;;;6.90;2.58;;;19.20;99.90;;;;;;5012563;28;20211;-74
2022/08/09 05:10:21;;;;;;;5.57;2.80;;;19.20;99.90;;;;;;5011628;28;20788;-73
2022/08/09 05:12:48;;;;;;;5.32;2.72;;;19.30;99.90;;;;;;5010825;28;20215;-72
2022/08/09 05:15:14;;;;;;;4.68;2.13;;;19.20;99.90;;;;;;5011256;28;20786;-75
2022/08/09 05:17:42;;;;;;;6.70;2.55;;;19.30;99.90;;;;;;5017686;28;20586;-75
2022/08/09 05:20:10;;;;;;;4.25;2.50;;;19.30;99.90;;;;;;5010685;28;20211;-73
2022/08/09 05:22:37;;;;;;;4.78;2.72;;;19.40;99.90;;;;;;5011644;28;20226;-74
2022/08/09 05:25:04;;;;;;;8.57;2.83;;;19.40;99.90;;;;;;5012563;28;20215;-73
2022/08/09 05:27:31;;;;;;;10.32;3.08;;;19.40;99.90;;;;;;5005589;28;20615;-75
2022/08/09 05:29:58;;;;;;;5.93;3.10;;;19.40;99.90;;;;;;5010330;28;20199;-75
2022/08/09 05:32:25;;;;;;;7.10;2.70;;;19.40;99.90;;;;;;5009921;28;20203;-74
2022/08/09 05:34:53;;;;;;;4.95;2.40;;;19.50;99.90;;;;;;5011245;28;20219;-74
2022/08/09 05:37:19;;;;;;;2.78;2.08;;;19.60;99.90;;;;;;5011389;28;20207;-74
2022/08/09 05:39:46;;;;;;;2.88;2.30;;;19.60;99.90;;;;;;5010223;28;20211;-73
2022/08/09 05:42:14;;;;;;;5.72;2.22;;;19.60;99.90;;;;;;5011629;28;20215;-74
2022/08/09 05:44:41;;;;;;;3.60;2.88;;;19.70;99.90;;;;;;5010358;28;20207;-74
2022/08/09 05:47:08;;;;;;;5.53;2.33;;;19.70;99.90;;;;;;5011263;28;21016;-74
2022/08/09 05:49:34;;;;;;;4.60;2.53;;;19.80;99.90;;;;;;5010296;28;20211;-73
2022/08/09 05:52:03;;;;;;;4.38;2.40;;;19.80;99.90;;;;;;5010047;28;20206;-74
2022/08/09 05:54:30;;;;;;;4.72;2.45;;;19.80;99.90;;;;;;5011319;28;20215;-74
2022/08/09 05:56:56;;;;;;;5.10;2.63;;;19.80;99.90;;;;;;5011330;28;20248;-73
2022/08/09 05:59:23;;;;;;;7.35;2.75;;;19.90;99.90;;;;;;5011315;28;20215;-73
2022/08/09 06:01:50;;;;;;;2.92;2.20;;;19.90;99.90;;;;;;5007176;28;20742;-73
2022/08/09 06:04:16;;;;;;;5.00;2.40;;;19.90;99.90;;;;;;5010819;28;20208;-73
2022/08/09 06:06:43;;;;;;;5.22;2.75;;;20.00;99.90;;;;;;5010771;28;20238;-75
2022/08/09 06:09:11;;;;;;;11.02;2.90;;;20.10;99.90;;;;;;5009156;28;20569;-73
2022/08/09 06:11:38;;;;;;;5.63;3.35;;;20.10;99.90;;;;;;5005824;28;20203;-76
2022/08/09 06:14:06;;;;;;;6.05;2.45;;;20.20;99.90;;;;;;5008023;28;20215;-76
2022/08/09 06:16:34;;;;;;;4.65;2.75;;;20.20;99.90;;;;;;5008925;28;20211;-77
2022/08/09 06:19:01;;;;;;;4.55;2.70;;;20.20;99.90;;;;;;5003520;28;20211;-77
2022/08/09 06:21:27;;;;;;;5.43;3.03;;;20.30;99.90;;;;;;5008833;28;20226;-76
2022/08/09 06:23:54;;;;;;;4.32;2.67;;;20.30;99.90;;;;;;5009944;28;20207;-72
2022/08/09 06:26:23;;;;;;;7.55;3.05;;;20.30;99.90;;;;;;5010516;28;20227;-71
2022/08/09 06:28:50;;;;;;;8.43;3.47;;;20.40;99.90;;;;;;5005476;28;20203;-73
2022/08/09 06:31:17;;;;;;;6.35;2.42;;;20.50;99.90;;;;;;5009331;28;20211;-71
2022/08/09 06:33:44;;;;;;;8.40;3.00;;;20.50;99.90;;;;;;5001925;28;20257;-72
2022/08/09 06:36:11;;;;;;;11.82;3.28;;;20.60;99.90;;;;;;5005027;28;20202;-71
2022/08/09 06:38:39;;;;;;;5.95;3.90;;;20.60;99.90;;;;;;5008784;28;20462;-74
2022/08/09 06:41:07;;;;;;;6.30;3.40;;;20.70;99.90;;;;;;5006348;28;20605;-73
2022/08/09 06:43:35;;;;;;;10.02;3.78;;;20.80;99.90;;;;;;5007761;28;20219;-72
2022/08/09 06:46:02;;;;;;;7.95;3.35;;;20.80;99.90;;;;;;5008231;28;20646;-69
2022/08/09 06:48:29;;;;;;;9.82;3.33;;;20.90;99.90;;;;;;5007659;28;20211;-71
2022/08/09 06:50:55;;;;;;;5.50;3.95;;;20.90;99.90;;;;;;5009016;28;20322;-73
2022/08/09 06:53:22;;;;;;;7.40;3.17;;;21.00;99.90;;;;;;5009315;28;20211;-74
2022/08/09 06:55:49;;;;;;;6.22;2.90;;;21.20;99.90;;;;;;5008045;28;20233;-73
2022/08/09 06:58:16;;;;;;;6.07;3.45;;;21.20;99.90;;;;;;5010459;28;20203;-72
2022/08/09 07:00:44;;;;;;;6.05;2.78;;;21.30;99.90;;;;;;5010105;28;20221;-71
2022/08/09 07:03:11;;;;;;;10.23;3.10;;;21.40;99.90;;;;;;5009947;28;20678;-72
2022/08/09 07:05:38;;;;;;;4.93;2.70;;;21.40;99.90;;;;;;5012185;28;20211;-70
2022/08/09 07:08:05;;;;;;;6.90;2.55;;;21.60;99.90;;;;;;5012759;28;20218;-72
2022/08/09 07:10:32;;;;;;;5.38;2.60;;;21.60;99.90;;;;;;5014213;28;20289;-72
2022/08/09 07:12:59;;;;;;;4.20;2.80;;;21.80;99.90;;;;;;5012785;28;20211;-72
2022/08/09 07:15:26;;;;;;;6.65;3.10;;;21.90;99.90;;;;;;5010631;28;20226;-72
2022/08/09 07:17:54;;;;;;;6.32;2.30;;;22.00;99.90;;;;;;5012968;28;20214;-70
2022/08/09 07:20:21;;;;;;;9.85;2.85;;;22.10;99.90;;;;;;5009529;28;21622;-70
2022/08/09 07:22:48;;;;;;;5.88;2.70;;;22.20;99.90;;;;;;5011971;28;20227;-69
2022/08/09 07:25:14;;;;;;;5.75;3.00;;;22.30;99.90;;;;;;5011687;28;20580;-68
2022/08/09 07:27:42;;;;;;;3.55;2.05;;;22.40;99.90;;;;;;5012113;28;20231;-69
2022/08/09 07:30:12;;;;;;;3.78;2.60;;;22.40;99.90;;;;;;5013337;28;20257;-69
2022/08/09 07:32:39;;;;;;;8.40;2.72;;;22.40;99.90;;;;;;5013346;28;20640;-67
2022/08/09 07:35:10;;;;;;;8.98;3.15;;;22.50;99.90;;;;;;5011041;28;20302;-68
2022/08/09 07:37:37;;;;;;;8.20;3.15;;;22.60;99.90;;;;;;5013421;28;20747;-69
2022/08/09 07:40:05;;;;;;;5.20;2.53;;;22.70;99.90;;;;;;5013821;28;20242;-68
2022/08/09 07:42:32;;;;;;;5.75;2.60;;;22.80;99.90;;;;;;5013059;28;20574;-70
2022/08/09 07:44:58;;;;;;;8.02;2.65;;;22.80;99.80;;;;;;5013131;28;20207;-68
2022/08/09 07:47:25;;;;;;;2.92;2.40;;;22.90;99.80;;;;;;5009477;28;20730;-70
2022/08/09 07:49:52;;;;;;;2.92;1.70;;;22.90;99.40;;;;;;5012821;28;20612;-68
2022/08/09 07:52:20;;;;;;;6.43;2.60;;;23.00;98.60;;;;;;5010695;28;20652;-68
2022/08/09 07:54:47;;;;;;;5.50;2.30;;;23.10;98.30;;;;;;5009881;28;20215;-67
2022/08/09 07:57:13;;;;;;;3.45;2.38;;;23.20;98.10;;;;;;5011038;28;20579;-68
2022/08/09 07:59:40;;;;;;;6.43;2.47;;;23.30;97.60;;;;;;5013177;28;20474;-66
2022/08/09 08:02:07;;;;;;;5.60;2.35;;;23.50;97.40;;;;;;5012078;28;20203;-68
2022/08/09 08:04:35;;;;;;;4.03;2.13;;;23.60;97.10;;;;;;5012591;28;20234;-67
2022/08/09 08:07:03;;;;;;;8.43;2.28;;;23.80;96.90;;;;;;5013390;28;20699;-68
2022/08/09 08:09:31;;;;;;;6.40;2.20;;;24.00;96.70;;;;;;5010341;28;20261;-67
2022/08/09 08:11:58;;;;;;;4.60;2.25;;;24.10;96.30;;;;;;5012502;28;20203;-67
2022/08/09 08:14:25;;;;;;;4.15;2.40;;;24.30;95.80;;;;;;5010961;28;20664;-68
2022/08/09 08:16:51;;;;;;;8.68;3.40;;;24.50;95.20;;;;;;5011054;28;20207;-68
2022/08/09 08:19:18;;;;;;;4.97;2.28;;;24.60;94.70;;;;;;5013004;28;20317;-66
2022/08/09 08:21:45;;;;;;;4.22;2.60;;;24.60;94.60;;;;;;5008663;28;20718;-69
2022/08/09 08:24:11;;;;;;;5.43;2.50;;;24.80;94.30;;;;;;5009070;28;20210;-68
2022/08/09 08:26:39;;;;;;;4.63;2.10;;;24.90;94.20;;;;;;5011821;28;20245;-67
2022/08/09 08:29:06;;;;;;;9.57;2.60;;;25.00;93.90;;;;;;5012453;28;20214;-67
2022/08/09 08:31:33;;;;;;;7.13;2.38;;;25.30;93.40;;;;;;5009403;28;20225;-67
2022/08/09 08:34:00;;;;;;;5.95;2.08;;;25.50;93.00;;;;;;5012426;28;20515;-67
2022/08/09 08:36:26;;;;;;;4.47;2.20;;;25.60;92.50;;;;;;5012281;28;20208;-67
2022/08/09 08:38:53;;;;;;;4.20;2.40;;;25.70;92.10;;;;;;5011652;28;20208;-67
2022/08/09 08:41:21;;;;;;;7.15;2.55;;;25.80;91.50;;;;;;5011385;28;20207;-66
2022/08/09 08:43:50;;;;;;;8.35;3.35;;;25.90;91.20;;;;;;5010656;28;20215;-67
2022/08/09 08:46:20;;;;;;;6.55;2.10;;;26.00;90.80;;;;;;5009126;28;20211;-67
2022/08/09 08:48:48;;;;;;;5.88;2.20;;;26.00;90.30;;;;;;5009845;28;20212;-66
2022/08/09 08:51:14;;;;;;;7.20;2.20;;;26.10;90.30;;;;;;5009595;28;20238;-67
2022/08/09 08:53:42;;;;;;;3.22;1.90;;;26.20;90.20;;;;;;5004717;28;20593;-68
2022/08/09 08:56:09;;;;;;;3.85;2.03;;;26.30;88.30;;;;;;5010226;28;20715;-67
2022/08/09 08:58:36;;;;;;;3.78;1.75;;;26.30;87.20;;;;;;5010717;28;20219;-67
2022/08/09 09:01:05;;;;;;;4.00;2.00;;;26.30;87.50;;;;;;5007988;28;20648;-67
2022/08/09 09:03:34;;;;;;;5.28;2.35;;;26.40;87.00;;;;;;5010856;28;20493;-67
2022/08/09 09:06:02;;;;;;;4.95;2.30;;;26.30;86.30;;;;;;5011230;28;20199;-66
2022/08/09 09:08:34;;;;;;;4.38;2.13;;;26.50;85.90;;;;;;5011155;28;20238;-66
2022/08/09 09:11:03;;;;;;;6.72;1.77;;;26.70;84.80;;;;;;5007012;28;20200;-67
2022/08/09 09:13:31;;;;;;;4.78;2.17;;;26.80;83.50;;;;;;5010366;28;20215;-68
2022/08/09 09:15:57;;;;;;;4.13;2.10;;;26.80;82.90;;;;;;5009322;28;20242;-67
2022/08/09 09:18:26;;;;;;;3.55;1.80;;;26.80;82.70;;;;;;5006280;28;20777;-67
2022/08/09 09:20:52;;;;;;;4.95;1.83;;;26.90;81.80;;;;;;5011507;28;20203;-67
2022/08/09 09:23:39;;;;;;;3.90;1.92;;;26.80;80.70;;;;;;5009616;28;20238;-69
2022/08/09 09:26:06;;;;;;;2.70;2.17;;;26.80;81.00;;;;;;5010140;28;20554;-68
2022/08/09 09:28:33;;;;;;;2.90;1.98;;;26.60;81.50;;;;;;5009755;28;20602;-68
2022/08/09 09:31:01;;;;;;;4.90;3.60;;;26.60;81.30;;;;;;5010874;28;20214;-68
2022/08/09 09:33:34;;;;;;;7.05;2.13;;;26.60;80.90;;;;;;5005201;28;20298;-67
2022/08/09 09:36:02;;;;;;;2.63;1.80;;;26.60;80.40;;;;;;5000570;28;20589;-67
2022/08/09 09:38:43;;;;;;;3.72;1.77;;;26.50;80.00;;;;;;4999993;28;20192;-69
2022/08/09 09:41:10;;;;;;;5.80;2.05;;;26.40;79.00;;;;;;5009545;28;20227;-68
2022/08/09 09:43:37;;;;;;;5.13;1.90;;;26.40;79.30;;;;;;5006137;28;20781;-68
2022/08/09 09:46:04;;;;;;;4.88;1.88;;;26.30;79.80;;;;;;5007841;28;20203;-67
2022/08/09 09:48:33;;;;;;;3.42;1.80;;;26.50;80.00;;;;;;5009787;28;20223;-67
2022/08/09 09:50:59;;;;;;;3.80;1.80;;;26.70;78.90;;;;;;5010677;28;20207;-67
2022/08/09 09:53:27;;;;;;;4.45;1.55;;;27.00;78.10;;;;;;5008843;28;20214;-67
2022/08/09 09:55:56;;;;;;;4.03;1.73;;;27.10;77.70;;;;;;5009755;28;20758;-67
2022/08/09 09:58:24;;;;;;;5.90;1.77;;;27.20;77.50;;;;;;5008568;28;20700;-67
2022/08/09 10:00:52;;;;;;;2.33;1.52;;;27.30;76.90;;;;;;5008601;28;20295;-67
2022/08/09 10:03:36;;;;;;;3.05;1.92;;;27.50;76.70;;;;;;5004781;28;20294;-66
2022/08/09 10:06:05;;;;;;;2.35;1.85;;;27.70;75.70;;;;;;5009886;28;20204;-67
2022/08/09 10:08:31;;;;;;;4.07;1.83;;;27.90;75.40;;;;;;5008990;28;20540;-67
2022/08/09 10:10:58;;;;;;;8.55;2.20;;;28.00;74.70;;;;;;5010379;28;20215;-67
2022/08/09 10:13:37;;;;;;;12.48;2.58;;;28.10;74.70;;;;;;5010647;28;20218;-67
2022/08/09 10:16:05;;;;;;;4.53;1.70;;;27.90;74.10;;;;;;5008571;28;20206;-66
2022/08/09 10:18:31;;;;;;;6.70;2.30;;;27.90;74.00;;;;;;5008743;28;20864;-66
2022/08/09 10:21:07;;;;;;;2.22;2.03;;;27.80;74.20;;;;;;5009402;28;20412;-66
2022/08/09 10:23:36;;;;;;;2.17;1.58;;;27.80;74.10;;;;;;5004654;28;20203;-65
2022/08/09 10:26:03;;;;;;;4.68;1.90;;;27.80;73.90;;;;;;5008941;28;20298;-65
2022/08/09 10:28:33;;;;;;;3.63;1.85;;;27.80;73.60;;;;;;5008522;28;20247;-65
2022/08/09 10:31:00;;;;;;;2.25;1.70;;;27.90;73.60;;;;;;5009075;28;20640;-66
2022/08/09 10:33:26;;;;;;;3.13;1.52;;;27.80;72.90;;;;;;5007586;28;20210;-66
2022/08/09 10:35:53;;;;;;;3.28;1.60;;;27.80;72.70;;;;;;5009348;28;20211;-66
2022/08/09 10:38:22;;;;;;;6.43;2.10;;;27.70;72.20;;;;;;5005213;28;20195;-66
2022/08/09 10:40:48;;;;;;;4.05;1.83;;;27.70;72.60;;;;;;5007128;28;20208;-67
2022/08/09 10:43:15;;;;;;;4.40;1.90;;;27.70;72.20;;;;;;5008200;28;20215;-66
2022/08/09 10:45:44;;;;;;;3.88;1.83;;;27.70;71.90;;;;;;5007204;28;20218;-66
2022/08/09 10:48:16;;;;;;;6.72;1.90;;;27.70;71.60;;;;;;5007634;28;20730;-66
2022/08/09 10:51:10;;;;;;;2.78;2.10;;;27.70;70.70;;;;;;5006719;28;20219;-67
2022/08/09 10:53:59;;;;;;;1.40;1.30;;;27.60;70.40;;;;;;5009067;28;20269;-67
2022/08/09 10:56:28;;;;;;;2.25;1.65;;;27.40;70.00;;;;;;5009495;28;20270;-67
2022/08/09 10:58:56;;;;;;;2.33;1.70;;;27.30;69.90;;;;;;5010231;28;20199;-69
2022/08/09 11:01:40;;;;;;;4.28;1.80;;;27.20;68.80;;;;;;5010232;28;20215;-67
2022/08/09 11:04:13;;;;;;;4.35;2.10;;;27.10;70.20;;;;;;4998798;28;20234;-66
2022/08/09 11:06:41;;;;;;;3.97;1.80;;;27.00;70.60;;;;;;5007841;28;20216;-66
2022/08/09 11:09:10;;;;;;;2.72;1.70;;;27.00;71.00;;;;;;5009291;28;20587;-66
2022/08/09 11:12:11;;;;;;;2.72;1.40;;;27.00;70.10;;;;;;5008262;28;20203;-69
2022/08/09 11:14:40;;;;;;;2.65;1.90;;;27.20;69.30;;;;;;4998882;28;20214;-74
2022/08/09 11:17:49;;;;;;;3.97;1.30;;;27.30;68.00;;;;;;5010496;28;20215;-70
2022/08/09 11:20:18;;;;;;;1.60;1.50;;;27.40;66.70;;;;;;5010086;28;20211;-68
2022/08/09 11:22:59;;;;;;;2.25;1.70;;;27.40;67.50;;;;;;5004864;28;20227;-68
2022/08/09 11:25:45;;;;;;;2.90;2.00;;;27.60;68.70;;;;;;5011555;28;20241;-68
2022/08/09 11:28:39;;;;;;;4.38;1.83;;;27.90;66.60;;;;;;5006513;28;20321;-68
2022/08/09 11:31:46;;;;;;;4.82;1.88;;;28.10;66.30;;;;;;5008014;28;20212;-68
2022/08/09 11:34:42;;;;;;;1.70;1.60;;;28.30;64.70;;;;;;5009359;28;20210;-68
2022/08/09 11:37:10;;;;;;;5.75;2.10;;;28.70;63.90;;;;;;5007565;28;20300;-69
2022/08/09 11:40:02;;;;;;;22.80;8.13;;;29.10;62.70;;;;;;5002942;28;20665;-69
2022/08/09 11:42:40;;;;;;;19.73;9.10;;;29.30;61.90;;;;;;5005815;28;20211;-69
2022/08/09 11:45:22;;;;;;;14.65;7.13;;;29.30;60.50;;;;;;5006296;28;20207;-69
2022/08/09 11:47:50;;;;;;;17.77;8.50;;;29.40;60.90;;;;;;5007126;28;20249;-69
2022/08/09 11:50:17;;;;;;;4.15;2.25;;;29.50;59.50;;;;;;5012086;28;20241;-69
2022/08/09 11:53:21;;;;;;;4.03;1.92;;;29.50;59.70;;;;;;5012508;28;20210;-69
2022/08/09 11:55:50;;;;;;;4.00;1.90;;;29.40;58.90;;;;;;5008100;28;20413;-69
2022/08/09 11:58:43;;;;;;;3.33;2.65;;;29.40;59.00;;;;;;5009334;28;20584;-67
2022/08/09 12:01:12;;;;;;;4.78;1.73;;;29.50;59.10;;;;;;5003898;28;20207;-68
2022/08/09 12:03:39;;;;;;;2.92;1.50;;;29.70;58.00;;;;;;5009759;28;20207;-68
2022/08/09 12:06:15;;;;;;;1.75;1.38;;;29.80;57.70;;;;;;5012574;28;20583;-68
2022/08/09 12:08:48;;;;;;;1.42;1.33;;;29.70;56.50;;;;;;5009436;28;20222;-69
2022/08/09 12:11:16;;;;;;;2.55;1.38;;;29.70;56.60;;;;;;5009610;28;20218;-67
2022/08/09 12:13:46;;;;;;;3.53;1.95;;;30.00;56.10;;;;;;5010791;28;20203;-69
2022/08/09 12:16:15;;;;;;;2.13;1.80;;;30.20;55.50;;;;;;5010928;28;20222;-68
2022/08/09 12:18:44;;;;;;;2.75;1.58;;;30.40;55.20;;;;;;5008898;28;20286;-69
2022/08/09 12:21:12;;;;;;;2.78;1.50;;;30.70;54.70;;;;;;5008690;28;20218;-70
2022/08/09 12:23:43;;;;;;;2.45;1.63;;;30.60;53.90;;;;;;5008847;28;20219;-67
2022/08/09 12:26:10;;;;;;;3.92;1.58;;;30.40;54.60;;;;;;5004126;28;20831;-69
2022/08/09 12:28:39;;;;;;;3.47;1.70;;;30.40;55.20;;;;;;5010003;28;20238;-68
2022/08/09 12:31:19;;;;;;;2.33;1.60;;;30.50;55.40;;;;;;5003318;28;20656;-66
2022/08/09 12:33:45;;;;;;;6.25;1.60;;;30.60;55.60;;;;;;5005521;28;20203;-69
2022/08/09 12:36:16;;;;;;;2.03;1.77;;;30.60;55.60;;;;;;5004731;28;20206;-69
2022/08/09 12:38:42;;;;;;;1.65;1.55;;;30.80;55.40;;;;;;5006846;28;20211;-69
2022/08/09 12:41:09;;;;;;;4.90;2.13;;;30.90;55.20;;;;;;5009343;28;20199;-69
2022/08/09 12:43:36;;;;;;;2.17;1.58;;;31.00;55.40;;;;;;5011134;28;20672;-68
2022/08/09 12:46:03;;;;;;;2.05;1.42;;;31.00;55.20;;;;;;5005691;28;20211;-67
2022/08/09 12:48:32;;;;;;;1.98;1.60;;;30.90;55.00;;;;;;5010905;28;20231;-68
2022/08/09 12:51:00;;;;;;;2.83;1.73;;;30.80;55.20;;;;;;4998295;28;20569;-69
2022/08/09 12:53:29;;;;;;;3.08;1.55;;;30.80;55.00;;;;;;5006793;28;20337;-68
2022/08/09 12:56:11;;;;;;;1.90;1.80;;;30.50;55.00;;;;;;5010688;28;20250;-68
2022/08/09 12:58:39;;;;;;;1.95;1.75;;;30.00;56.10;;;;;;5007429;28;20207;-70
2022/08/09 13:01:20;;;;;;;2.47;1.90;;;29.70;56.70;;;;;;5007503;28;20231;-69